sensor_id;sensor_type;location;lat;lon;timestamp;pressure;altitude;pressure_sealevel;temperature;humidity
5755;BME280;2902;42.130;24.732;2022-07-29T00:06:42;99509.22;;;25.14;61.22
5755;BME280;2902;42.130;24.732;2022-07-29T00:09:09;99520.03;;;24.95;61.77
5755;BME280;2902;42.130;24.732;2022-07-29T00:12:13;99508.06;;;24.96;61.79
5755;BME280;2902;42.130;24.732;2022-07-29T00:14:54;99518.28;;;24.81;62.31
5755;BME280;2902;42.130;24.732;2022-07-29T00:20:25;99511.06;;;24.71;62.67
5755;BME280;2902;42.130;24.732;2022-07-29T00:22:53;99515.53;;;24.57;63.22
5755;BME280;2902;42.130;24.732;2022-07-29T00:25:35;99514.38;;;24.63;63.27
5755;BME280;2902;42.130;24.732;2022-07-29T00:28:23;99515.41;;;24.72;62.89
5755;BME280;2902;42.130;24.732;2022-07-29T00:34:45;99521.91;;;24.71;63.01
5755;BME280;2902;42.130;24.732;2022-07-29T01:08:11;99518.75;;;24.59;65.12
5755;BME280;2902;42.130;24.732;2022-07-29T01:10:39;99509.91;;;24.77;64.65
5755;BME280;2902;42.130;24.732;2022-07-29T01:13:07;99509.03;;;24.82;64.17
5755;BME280;2902;42.130;24.732;2022-07-29T01:15:43;99517.44;;;24.85;64.39
5755;BME280;2902;42.130;24.732;2022-07-29T01:18:14;99519.53;;;24.93;64.60
5755;BME280;2902;42.130;24.732;2022-07-29T01:20:59;99523.69;;;25.10;64.22
5755;BME280;2902;42.130;24.732;2022-07-29T01:23:45;99520.47;;;25.31;63.42
5755;BME280;2902;42.130;24.732;2022-07-29T01:26:30;99532.47;;;25.49;62.67
5755;BME280;2902;42.130;24.732;2022-07-29T01:29:05;99531.75;;;25.62;63.13
5755;BME280;2902;42.130;24.732;2022-07-29T01:31:39;99521.25;;;25.74;62.19
5755;BME280;2902;42.130;24.732;2022-07-29T01:34:11;99528.25;;;25.80;61.43
5755;BME280;2902;42.130;24.732;2022-07-29T01:36:43;99522.34;;;25.73;61.56
5755;BME280;2902;42.130;24.732;2022-07-29T01:39:16;99516.25;;;25.62;61.23
5755;BME280;2902;42.130;24.732;2022-07-29T01:41:49;99526.91;;;25.59;61.60
5755;BME280;2902;42.130;24.732;2022-07-29T01:44:20;99508.59;;;25.64;61.26
5755;BME280;2902;42.130;24.732;2022-07-29T01:46:52;99518.69;;;25.64;61.72
5755;BME280;2902;42.130;24.732;2022-07-29T01:49:22;99511.25;;;25.69;61.62
5755;BME280;2902;42.130;24.732;2022-07-29T01:51:55;99518.53;;;25.74;61.48
5755;BME280;2902;42.130;24.732;2022-07-29T01:54:29;99514.34;;;25.81;61.40
5755;BME280;2902;42.130;24.732;2022-07-29T01:56:58;99514.56;;;25.85;61.75
5755;BME280;2902;42.130;24.732;2022-07-29T01:59:29;99495.81;;;25.83;61.08
5755;BME280;2902;42.130;24.732;2022-07-29T02:01:58;99514.28;;;26.05;60.53
5755;BME280;2902;42.130;24.732;2022-07-29T02:04:27;99516.09;;;26.09;60.11
5755;BME280;2902;42.130;24.732;2022-07-29T02:06:58;99517.94;;;25.77;60.45
5755;BME280;2902;42.130;24.732;2022-07-29T02:09:27;99520.19;;;25.51;61.41
5755;BME280;2902;42.130;24.732;2022-07-29T02:11:55;99515.47;;;25.38;62.42
5755;BME280;2902;42.130;24.732;2022-07-29T02:14:23;99518.03;;;25.30;62.28
5755;BME280;2902;42.130;24.732;2022-07-29T02:16:54;99512.09;;;25.28;62.12
5755;BME280;2902;42.130;24.732;2022-07-29T02:19:23;99507.13;;;25.06;61.76
5755;BME280;2902;42.130;24.732;2022-07-29T02:21:53;99508.88;;;24.97;62.79
5755;BME280;2902;42.130;24.732;2022-07-29T02:24:22;99501.00;;;24.95;62.13
5755;BME280;2902;42.130;24.732;2022-07-29T02:26:50;99508.75;;;24.83;62.41
5755;BME280;2902;42.130;24.732;2022-07-29T02:29:19;99494.81;;;24.66;62.87
5755;BME280;2902;42.130;24.732;2022-07-29T02:31:48;99501.34;;;24.65;62.72
5755;BME280;2902;42.130;24.732;2022-07-29T02:34:18;99504.16;;;24.50;63.66
5755;BME280;2902;42.130;24.732;2022-07-29T02:36:46;99500.06;;;24.24;65.00
5755;BME280;2902;42.130;24.732;2022-07-29T02:39:15;99490.94;;;24.15;65.31
5755;BME280;2902;42.130;24.732;2022-07-29T02:41:45;99503.78;;;24.33;64.99
5755;BME280;2902;42.130;24.732;2022-07-29T02:44:14;99495.84;;;24.42;64.12
5755;BME280;2902;42.130;24.732;2022-07-29T02:46:45;99500.56;;;24.31;64.20
5755;BME280;2902;42.130;24.732;2022-07-29T02:49:18;99504.44;;;24.20;64.54
5755;BME280;2902;42.130;24.732;2022-07-29T02:51:52;99492.59;;;24.06;65.21
5755;BME280;2902;42.130;24.732;2022-07-29T02:54:24;99496.19;;;24.02;65.61
5755;BME280;2902;42.130;24.732;2022-07-29T02:56:53;99493.66;;;24.10;65.78
5755;BME280;2902;42.130;24.732;2022-07-29T02:59:24;99503.41;;;24.16;65.32
5755;BME280;2902;42.130;24.732;2022-07-29T03:01:54;99500.13;;;24.14;65.20
5755;BME280;2902;42.130;24.732;2022-07-29T03:04:24;99498.19;;;24.20;65.83
5755;BME280;2902;42.130;24.732;2022-07-29T03:06:54;99498.59;;;24.37;65.29
5755;BME280;2902;42.130;24.732;2022-07-29T03:09:22;99499.78;;;24.54;65.00
5755;BME280;2902;42.130;24.732;2022-07-29T03:11:49;99501.81;;;24.72;64.14
5755;BME280;2902;42.130;24.732;2022-07-29T03:14:17;99509.44;;;24.94;63.22
5755;BME280;2902;42.130;24.732;2022-07-29T03:16:45;99506.84;;;25.08;62.82
5755;BME280;2902;42.130;24.732;2022-07-29T03:19:12;99513.72;;;25.24;62.40
5755;BME280;2902;42.130;24.732;2022-07-29T03:21:40;99515.84;;;25.32;61.77
5755;BME280;2902;42.130;24.732;2022-07-29T03:24:07;99518.94;;;25.44;61.34
5755;BME280;2902;42.130;24.732;2022-07-29T03:26:35;99517.72;;;25.55;61.22
5755;BME280;2902;42.130;24.732;2022-07-29T03:29:02;99517.66;;;25.60;60.50
5755;BME280;2902;42.130;24.732;2022-07-29T03:31:29;99518.31;;;25.70;60.29
5755;BME280;2902;42.130;24.732;2022-07-29T03:33:56;99522.81;;;25.80;59.89
5755;BME280;2902;42.130;24.732;2022-07-29T03:36:23;99523.72;;;25.94;60.03
5755;BME280;2902;42.130;24.732;2022-07-29T03:38:52;99536.06;;;26.05;59.00
5755;BME280;2902;42.130;24.732;2022-07-29T03:41:21;99535.47;;;26.08;59.29
5755;BME280;2902;42.130;24.732;2022-07-29T03:43:49;99532.69;;;26.13;57.54
5755;BME280;2902;42.130;24.732;2022-07-29T03:46:20;99532.22;;;26.06;58.34
5755;BME280;2902;42.130;24.732;2022-07-29T03:48:50;99533.84;;;26.07;58.00
5755;BME280;2902;42.130;24.732;2022-07-29T03:51:19;99540.50;;;26.01;57.92
5755;BME280;2902;42.130;24.732;2022-07-29T03:53:45;99542.81;;;25.89;58.16
5755;BME280;2902;42.130;24.732;2022-07-29T03:56:15;99533.41;;;25.81;58.01
5755;BME280;2902;42.130;24.732;2022-07-29T03:58:44;99536.91;;;25.82;59.29
5755;BME280;2902;42.130;24.732;2022-07-29T04:01:11;99543.28;;;25.96;58.18
5755;BME280;2902;42.130;24.732;2022-07-29T04:03:39;99541.94;;;26.12;57.96
5755;BME280;2902;42.130;24.732;2022-07-29T04:06:06;99543.47;;;26.36;57.32
5755;BME280;2902;42.130;24.732;2022-07-29T04:08:34;99547.34;;;26.94;55.36
5755;BME280;2902;42.130;24.732;2022-07-29T04:11:01;99553.34;;;27.64;53.33
5755;BME280;2902;42.130;24.732;2022-07-29T04:13:29;99561.59;;;28.21;51.29
5755;BME280;2902;42.130;24.732;2022-07-29T04:15:56;99556.53;;;28.72;50.02
5755;BME280;2902;42.130;24.732;2022-07-29T04:18:23;99562.06;;;29.11;48.40
5755;BME280;2902;42.130;24.732;2022-07-29T04:20:50;99562.84;;;29.51;47.20
5755;BME280;2902;42.130;24.732;2022-07-29T04:23:17;99575.72;;;29.98;46.00
5755;BME280;2902;42.130;24.732;2022-07-29T04:25:44;99568.94;;;30.38;44.50
5755;BME280;2902;42.130;24.732;2022-07-29T04:28:10;99565.06;;;30.73;44.13
5755;BME280;2902;42.130;24.732;2022-07-29T04:30:38;99571.25;;;31.16;42.42
5755;BME280;2902;42.130;24.732;2022-07-29T04:33:06;99569.16;;;31.51;41.49
5755;BME280;2902;42.130;24.732;2022-07-29T04:35:35;99573.09;;;31.70;40.61
5755;BME280;2902;42.130;24.732;2022-07-29T04:38:02;99567.16;;;32.09;39.30
5755;BME280;2902;42.130;24.732;2022-07-29T04:40:29;99566.56;;;32.24;39.23
5755;BME280;2902;42.130;24.732;2022-07-29T04:42:58;99576.91;;;32.27;38.92
5755;BME280;2902;42.130;24.732;2022-07-29T04:45:25;99572.88;;;32.45;38.65
5755;BME280;2902;42.130;24.732;2022-07-29T04:47:53;99582.91;;;32.82;36.97
5755;BME280;2902;42.130;24.732;2022-07-29T04:50:20;99583.16;;;32.89;37.23
5755;BME280;2902;42.130;24.732;2022-07-29T04:52:47;99588.22;;;33.11;36.90
5755;BME280;2902;42.130;24.732;2022-07-29T04:55:14;99586.22;;;33.33;36.32
5755;BME280;2902;42.130;24.732;2022-07-29T04:57:40;99597.25;;;33.57;36.25
5755;BME280;2902;42.130;24.732;2022-07-29T05:00:08;99596.41;;;33.80;35.69
5755;BME280;2902;42.130;24.732;2022-07-29T05:02:35;99593.81;;;33.96;35.30
5755;BME280;2902;42.130;24.732;2022-07-29T05:05:04;99587.81;;;34.06;35.32
5755;BME280;2902;42.130;24.732;2022-07-29T05:07:31;99585.81;;;34.18;34.89
5755;BME280;2902;42.130;24.732;2022-07-29T05:09:58;99596.91;;;34.46;35.19
5755;BME280;2902;42.130;24.732;2022-07-29T05:12:25;99598.72;;;34.54;34.94
5755;BME280;2902;42.130;24.732;2022-07-29T05:14:52;99592.19;;;34.74;34.18
5755;BME280;2902;42.130;24.732;2022-07-29T05:17:18;99590.66;;;35.04;34.18
5755;BME280;2902;42.130;24.732;2022-07-29T05:19:45;99591.00;;;35.18;33.90
5755;BME280;2902;42.130;24.732;2022-07-29T05:22:13;99597.28;;;35.30;33.51
5755;BME280;2902;42.130;24.732;2022-07-29T05:24:40;99591.38;;;35.63;32.55
5755;BME280;2902;42.130;24.732;2022-07-29T05:27:08;99599.59;;;36.25;31.90
5755;BME280;2902;42.130;24.732;2022-07-29T05:29:35;99595.00;;;35.98;32.29
5755;BME280;2902;42.130;24.732;2022-07-29T05:32:02;99605.06;;;36.06;31.68
5755;BME280;2902;42.130;24.732;2022-07-29T05:34:29;99594.41;;;35.89;31.96
5755;BME280;2902;42.130;24.732;2022-07-29T05:36:56;99597.78;;;35.67;32.37
5755;BME280;2902;42.130;24.732;2022-07-29T05:39:24;99599.13;;;35.73;32.58
5755;BME280;2902;42.130;24.732;2022-07-29T05:41:50;99604.88;;;35.99;31.92
5755;BME280;2902;42.130;24.732;2022-07-29T05:44:17;99603.06;;;36.22;31.38
5755;BME280;2902;42.130;24.732;2022-07-29T05:46:44;99600.41;;;36.10;31.87
5755;BME280;2902;42.130;24.732;2022-07-29T05:49:11;99608.59;;;36.41;31.20
5755;BME280;2902;42.130;24.732;2022-07-29T05:51:37;99606.72;;;36.64;31.29
5755;BME280;2902;42.130;24.732;2022-07-29T05:54:04;99613.16;;;36.68;30.74
5755;BME280;2902;42.130;24.732;2022-07-29T05:56:32;99615.16;;;36.52;31.07
5755;BME280;2902;42.130;24.732;2022-07-29T05:58:59;99612.06;;;36.72;30.30
5755;BME280;2902;42.130;24.732;2022-07-29T06:01:26;99619.09;;;36.51;31.47
5755;BME280;2902;42.130;24.732;2022-07-29T06:03:53;99611.38;;;36.41;31.14
5755;BME280;2902;42.130;24.732;2022-07-29T06:06:19;99608.00;;;36.13;32.25
5755;BME280;2902;42.130;24.732;2022-07-29T06:08:46;99608.03;;;36.32;31.48
5755;BME280;2902;42.130;24.732;2022-07-29T06:11:13;99622.28;;;36.53;30.86
5755;BME280;2902;42.130;24.732;2022-07-29T06:13:41;99615.25;;;36.02;32.39
5755;BME280;2902;42.130;24.732;2022-07-29T06:16:08;99620.66;;;36.14;32.47
5755;BME280;2902;42.130;24.732;2022-07-29T06:18:34;99623.69;;;36.24;32.36
5755;BME280;2902;42.130;24.732;2022-07-29T06:21:01;99613.72;;;36.39;32.28
5755;BME280;2902;42.130;24.732;2022-07-29T06:23:33;99613.22;;;36.52;31.30
5755;BME280;2902;42.130;24.732;2022-07-29T06:26:00;99613.56;;;36.51;31.46
5755;BME280;2902;42.130;24.732;2022-07-29T06:28:27;99611.03;;;36.80;31.55
5755;BME280;2902;42.130;24.732;2022-07-29T06:30:55;99618.06;;;36.97;30.57
5755;BME280;2902;42.130;24.732;2022-07-29T06:33:22;99613.72;;;36.77;31.43
5755;BME280;2902;42.130;24.732;2022-07-29T06:35:48;99611.69;;;36.55;31.81
5755;BME280;2902;42.130;24.732;2022-07-29T06:38:15;99610.66;;;36.25;32.15
5755;BME280;2902;42.130;24.732;2022-07-29T06:40:42;99613.22;;;36.18;31.85
5755;BME280;2902;42.130;24.732;2022-07-29T06:43:30;99610.38;;;36.30;31.60
5755;BME280;2902;42.130;24.732;2022-07-29T06:46:02;99617.94;;;36.52;31.00
5755;BME280;2902;42.130;24.732;2022-07-29T06:48:29;99609.19;;;36.31;31.14
5755;BME280;2902;42.130;24.732;2022-07-29T06:50:56;99599.16;;;36.07;31.74
5755;BME280;2902;42.130;24.732;2022-07-29T06:53:23;99610.19;;;36.23;31.43
5755;BME280;2902;42.130;24.732;2022-07-29T06:55:50;99603.13;;;35.91;32.47
5755;BME280;2902;42.130;24.732;2022-07-29T06:58:17;99602.84;;;35.96;32.14
5755;BME280;2902;42.130;24.732;2022-07-29T07:00:46;99594.63;;;35.99;31.54
5755;BME280;2902;42.130;24.732;2022-07-29T07:03:14;99599.59;;;36.25;32.02
5755;BME280;2902;42.130;24.732;2022-07-29T07:05:41;99604.38;;;36.28;31.26
5755;BME280;2902;42.130;24.732;2022-07-29T07:08:08;99597.09;;;36.39;31.55
5755;BME280;2902;42.130;24.732;2022-07-29T07:10:36;99597.69;;;36.67;30.41
5755;BME280;2902;42.130;24.732;2022-07-29T07:13:04;99588.88;;;36.08;31.05
5755;BME280;2902;42.130;24.732;2022-07-29T07:15:31;99591.81;;;36.15;31.24
5755;BME280;2902;42.130;24.732;2022-07-29T07:17:58;99590.22;;;36.14;31.42
5755;BME280;2902;42.130;24.732;2022-07-29T07:20:26;99584.97;;;36.09;31.20
5755;BME280;2902;42.130;24.732;2022-07-29T07:22:53;99599.28;;;36.30;30.72
5755;BME280;2902;42.130;24.732;2022-07-29T07:25:19;99590.69;;;36.35;31.19
5755;BME280;2902;42.130;24.732;2022-07-29T07:27:46;99599.56;;;36.44;30.51
5755;BME280;2902;42.130;24.732;2022-07-29T07:30:13;99598.22;;;36.72;29.63
5755;BME280;2902;42.130;24.732;2022-07-29T07:32:40;99592.59;;;36.69;30.13
5755;BME280;2902;42.130;24.732;2022-07-29T07:35:08;99593.66;;;36.83;29.48
5755;BME280;2902;42.130;24.732;2022-07-29T07:37:37;99594.63;;;36.91;29.48
5755;BME280;2902;42.130;24.732;2022-07-29T07:40:06;99581.47;;;36.27;31.28
5755;BME280;2902;42.130;24.732;2022-07-29T07:42:33;99581.81;;;36.26;30.30
5755;BME280;2902;42.130;24.732;2022-07-29T07:45:00;99595.38;;;36.50;29.82
5755;BME280;2902;42.130;24.732;2022-07-29T07:47:27;99588.50;;;36.44;29.10
5755;BME280;2902;42.130;24.732;2022-07-29T07:49:53;99583.69;;;36.41;30.05
5755;BME280;2902;42.130;24.732;2022-07-29T07:52:21;99587.63;;;36.59;29.93
5755;BME280;2902;42.130;24.732;2022-07-29T07:54:49;99588.00;;;36.76;28.54
5755;BME280;2902;42.130;24.732;2022-07-29T07:57:16;99583.53;;;36.91;28.45
5755;BME280;2902;42.130;24.732;2022-07-29T07:59:43;99583.09;;;36.89;28.86
5755;BME280;2902;42.130;24.732;2022-07-29T08:02:10;99584.09;;;37.00;29.05
5755;BME280;2902;42.130;24.732;2022-07-29T08:04:36;99577.06;;;37.06;28.25
5755;BME280;2902;42.130;24.732;2022-07-29T08:07:06;99575.72;;;37.19;28.29
5755;BME280;2902;42.130;24.732;2022-07-29T08:09:34;99586.94;;;37.26;26.93
5755;BME280;2902;42.130;24.732;2022-07-29T08:12:02;99577.81;;;37.48;25.58
5755;BME280;2902;42.130;24.732;2022-07-29T08:14:31;99579.00;;;37.24;25.82
5755;BME280;2902;42.130;24.732;2022-07-29T08:16:58;99589.53;;;37.38;24.67
5755;BME280;2902;42.130;24.732;2022-07-29T08:19:25;99576.16;;;37.44;25.17
5755;BME280;2902;42.130;24.732;2022-07-29T08:21:52;99577.19;;;37.58;25.31
5755;BME280;2902;42.130;24.732;2022-07-29T08:24:20;99588.06;;;37.44;24.72
5755;BME280;2902;42.130;24.732;2022-07-29T08:27:06;99578.25;;;37.05;25.68
5755;BME280;2902;42.130;24.732;2022-07-29T08:29:32;99575.25;;;36.72;24.63
5755;BME280;2902;42.130;24.732;2022-07-29T08:31:59;99572.16;;;36.20;25.65
5755;BME280;2902;42.130;24.732;2022-07-29T08:34:26;99577.56;;;36.13;25.35
5755;BME280;2902;42.130;24.732;2022-07-29T08:36:54;99551.28;;;35.38;27.10
5755;BME280;2902;42.130;24.732;2022-07-29T08:39:21;99560.47;;;35.57;27.06
5755;BME280;2902;42.130;24.732;2022-07-29T08:41:47;99554.31;;;35.98;26.58
5755;BME280;2902;42.130;24.732;2022-07-29T08:44:17;99557.66;;;36.07;25.16
5755;BME280;2902;42.130;24.732;2022-07-29T08:46:44;99552.81;;;36.39;24.92
5755;BME280;2902;42.130;24.732;2022-07-29T08:49:11;99551.06;;;36.31;25.06
5755;BME280;2902;42.130;24.732;2022-07-29T08:51:40;99554.91;;;36.26;25.43
5755;BME280;2902;42.130;24.732;2022-07-29T08:54:08;99548.41;;;36.19;25.61
5755;BME280;2902;42.130;24.732;2022-07-29T08:56:36;99545.41;;;35.89;26.15
5755;BME280;2902;42.130;24.732;2022-07-29T08:59:04;99549.66;;;36.02;25.72
5755;BME280;2902;42.130;24.732;2022-07-29T09:01:33;99546.72;;;35.61;27.06
5755;BME280;2902;42.130;24.732;2022-07-29T09:04:03;99541.59;;;35.63;26.86
5755;BME280;2902;42.130;24.732;2022-07-29T09:06:32;99548.03;;;35.67;25.99
5755;BME280;2902;42.130;24.732;2022-07-29T09:09:00;99534.56;;;35.31;26.20
5755;BME280;2902;42.130;24.732;2022-07-29T09:11:27;99531.06;;;35.49;26.23
5755;BME280;2902;42.130;24.732;2022-07-29T09:13:54;99536.81;;;35.60;25.09
5755;BME280;2902;42.130;24.732;2022-07-29T09:16:21;99535.22;;;35.43;25.42
5755;BME280;2902;42.130;24.732;2022-07-29T09:18:49;99529.81;;;35.00;25.46
5755;BME280;2902;42.130;24.732;2022-07-29T09:21:17;99529.25;;;34.79;26.82
5755;BME280;2902;42.130;24.732;2022-07-29T09:24:05;99523.88;;;34.71;26.68
5755;BME280;2902;42.130;24.732;2022-07-29T09:26:35;99509.75;;;34.88;26.14
5755;BME280;2902;42.130;24.732;2022-07-29T09:29:09;99518.94;;;35.23;25.54
5755;BME280;2902;42.130;24.732;2022-07-29T09:31:38;99522.59;;;35.27;24.84
5755;BME280;2902;42.130;24.732;2022-07-29T09:34:06;99513.94;;;35.13;24.92
5755;BME280;2902;42.130;24.732;2022-07-29T09:36:39;99515.44;;;35.26;24.58
5755;BME280;2902;42.130;24.732;2022-07-29T09:39:06;99508.44;;;35.63;24.96
5755;BME280;2902;42.130;24.732;2022-07-29T09:41:44;99509.19;;;35.60;24.28
5755;BME280;2902;42.130;24.732;2022-07-29T09:44:12;99508.78;;;35.96;24.64
5755;BME280;2902;42.130;24.732;2022-07-29T09:46:40;99510.72;;;36.30;23.25
5755;BME280;2902;42.130;24.732;2022-07-29T09:49:11;99508.69;;;36.46;23.40
5755;BME280;2902;42.130;24.732;2022-07-29T09:51:38;99508.84;;;36.34;23.25
5755;BME280;2902;42.130;24.732;2022-07-29T09:54:23;99518.88;;;36.42;23.76
5755;BME280;2902;42.130;24.732;2022-07-29T09:56:51;99507.31;;;36.36;23.70
5755;BME280;2902;42.130;24.732;2022-07-29T09:59:18;99497.88;;;36.41;23.91
5755;BME280;2902;42.130;24.732;2022-07-29T10:01:45;99501.13;;;36.65;22.77
5755;BME280;2902;42.130;24.732;2022-07-29T10:04:13;99497.09;;;36.21;23.14
5755;BME280;2902;42.130;24.732;2022-07-29T10:06:55;99498.34;;;36.43;22.22
5755;BME280;2902;42.130;24.732;2022-07-29T10:09:23;99498.97;;;36.17;22.63
5755;BME280;2902;42.130;24.732;2022-07-29T10:12:03;99500.38;;;36.27;22.29
5755;BME280;2902;42.130;24.732;2022-07-29T10:14:32;99491.97;;;36.42;22.69
5755;BME280;2902;42.130;24.732;2022-07-29T10:16:59;99497.16;;;36.44;22.99
5755;BME280;2902;42.130;24.732;2022-07-29T10:19:28;99493.50;;;36.59;22.78
5755;BME280;2902;42.130;24.732;2022-07-29T10:21:56;99481.50;;;36.74;22.91
5755;BME280;2902;42.130;24.732;2022-07-29T10:24:24;99489.50;;;36.56;23.23
5755;BME280;2902;42.130;24.732;2022-07-29T10:26:51;99475.31;;;36.80;22.51
5755;BME280;2902;42.130;24.732;2022-07-29T10:29:19;99489.16;;;36.39;22.95
5755;BME280;2902;42.130;24.732;2022-07-29T10:31:53;99478.91;;;35.82;23.34
5755;BME280;2902;42.130;24.732;2022-07-29T10:34:31;99476.47;;;36.00;23.26
5755;BME280;2902;42.130;24.732;2022-07-29T10:37:07;99466.22;;;35.47;24.16
5755;BME280;2902;42.130;24.732;2022-07-29T10:39:52;99475.03;;;35.52;24.01
5755;BME280;2902;42.130;24.732;2022-07-29T10:42:23;99470.19;;;35.30;24.69
5755;BME280;2902;42.130;24.732;2022-07-29T10:44:52;99465.28;;;34.77;25.46
5755;BME280;2902;42.130;24.732;2022-07-29T10:47:21;99445.22;;;35.27;25.02
5755;BME280;2902;42.130;24.732;2022-07-29T10:50:00;99447.19;;;35.61;25.28
5755;BME280;2902;42.130;24.732;2022-07-29T10:52:53;99442.09;;;35.63;25.25
5755;BME280;2902;42.130;24.732;2022-07-29T10:55:32;99433.78;;;35.44;25.44
5755;BME280;2902;42.130;24.732;2022-07-29T10:58:13;99434.09;;;35.58;26.15
5755;BME280;2902;42.130;24.732;2022-07-29T11:00:40;99433.56;;;35.33;25.26
5755;BME280;2902;42.130;24.732;2022-07-29T11:03:07;99436.22;;;35.30;25.95
5755;BME280;2902;42.130;24.732;2022-07-29T11:06:02;99430.53;;;35.23;26.13
5755;BME280;2902;42.130;24.732;2022-07-29T11:08:29;99430.97;;;35.59;26.15
5755;BME280;2902;42.130;24.732;2022-07-29T11:14:07;99416.94;;;35.68;26.09
5755;BME280;2902;42.130;24.732;2022-07-29T11:17:04;99420.03;;;35.82;26.32
5755;BME280;2902;42.130;24.732;2022-07-29T11:19:33;99424.38;;;35.83;25.81
5755;BME280;2902;42.130;24.732;2022-07-29T11:22:02;99412.56;;;35.48;25.85
5755;BME280;2902;42.130;24.732;2022-07-29T11:24:30;99412.34;;;35.37;26.53
5755;BME280;2902;42.130;24.732;2022-07-29T11:27:11;99411.69;;;35.63;26.16
5755;BME280;2902;42.130;24.732;2022-07-29T11:29:40;99404.41;;;35.74;25.58
5755;BME280;2902;42.130;24.732;2022-07-29T11:32:15;99403.72;;;35.77;26.30
5755;BME280;2902;42.130;24.732;2022-07-29T11:34:43;99394.44;;;35.69;25.95
5755;BME280;2902;42.130;24.732;2022-07-29T11:37:22;99382.47;;;35.43;26.55
5755;BME280;2902;42.130;24.732;2022-07-29T11:40:13;99382.81;;;35.60;26.58
5755;BME280;2902;42.130;24.732;2022-07-29T11:42:51;99383.25;;;35.62;27.05
5755;BME280;2902;42.130;24.732;2022-07-29T11:45:24;99391.97;;;35.64;27.56
5755;BME280;2902;42.130;24.732;2022-07-29T11:47:55;99385.81;;;35.52;27.03
5755;BME280;2902;42.130;24.732;2022-07-29T11:50:34;99386.75;;;35.59;27.08
5755;BME280;2902;42.130;24.732;2022-07-29T11:53:10;99371.19;;;35.70;26.84
5755;BME280;2902;42.130;24.732;2022-07-29T11:55:39;99370.75;;;35.87;26.05
5755;BME280;2902;42.130;24.732;2022-07-29T11:58:06;99364.25;;;35.61;26.52
5755;BME280;2902;42.130;24.732;2022-07-29T12:00:35;99371.25;;;35.36;26.49
5755;BME280;2902;42.130;24.732;2022-07-29T12:03:06;99367.16;;;35.30;26.25
5755;BME280;2902;42.130;24.732;2022-07-29T12:05:39;99366.00;;;35.50;27.03
5755;BME280;2902;42.130;24.732;2022-07-29T12:08:10;99368.66;;;35.27;27.08
5755;BME280;2902;42.130;24.732;2022-07-29T12:10:38;99358.88;;;35.30;27.09
5755;BME280;2902;42.130;24.732;2022-07-29T12:13:05;99366.25;;;35.26;26.73
5755;BME280;2902;42.130;24.732;2022-07-29T12:15:33;99361.22;;;35.12;26.63
5755;BME280;2902;42.130;24.732;2022-07-29T12:18:09;99357.72;;;35.31;26.41
5755;BME280;2902;42.130;24.732;2022-07-29T12:20:36;99352.19;;;35.31;26.63
5755;BME280;2902;42.130;24.732;2022-07-29T12:23:05;99354.81;;;35.43;26.10
5755;BME280;2902;42.130;24.732;2022-07-29T12:25:35;99352.91;;;35.28;26.39
5755;BME280;2902;42.130;24.732;2022-07-29T12:28:04;99357.72;;;35.31;26.47
5755;BME280;2902;42.130;24.732;2022-07-29T12:30:36;99352.06;;;35.27;26.06
5755;BME280;2902;42.130;24.732;2022-07-29T12:33:14;99343.66;;;34.86;26.92
5755;BME280;2902;42.130;24.732;2022-07-29T12:35:42;99353.72;;;35.13;25.99
5755;BME280;2902;42.130;24.732;2022-07-29T12:38:10;99341.31;;;35.22;26.06
5755;BME280;2902;42.130;24.732;2022-07-29T12:40:39;99343.44;;;35.29;26.08
5755;BME280;2902;42.130;24.732;2022-07-29T12:43:08;99338.47;;;35.19;26.65
5755;BME280;2902;42.130;24.732;2022-07-29T12:45:36;99330.69;;;35.24;25.33
5755;BME280;2902;42.130;24.732;2022-07-29T12:48:03;99323.50;;;35.20;25.94
5755;BME280;2902;42.130;24.732;2022-07-29T12:50:30;99331.34;;;35.18;26.55
5755;BME280;2902;42.130;24.732;2022-07-29T12:53:08;99332.72;;;35.08;26.50
5755;BME280;2902;42.130;24.732;2022-07-29T12:55:46;99321.75;;;35.12;26.74
5755;BME280;2902;42.130;24.732;2022-07-29T12:58:25;99316.28;;;35.15;26.62
5755;BME280;2902;42.130;24.732;2022-07-29T13:01:00;99326.78;;;35.25;26.80
5755;BME280;2902;42.130;24.732;2022-07-29T13:03:27;99302.84;;;35.14;26.95
5755;BME280;2902;42.130;24.732;2022-07-29T13:05:53;99313.00;;;35.10;27.21
5755;BME280;2902;42.130;24.732;2022-07-29T13:08:20;99312.28;;;34.94;27.25
5755;BME280;2902;42.130;24.732;2022-07-29T13:10:50;99316.47;;;34.88;27.31
5755;BME280;2902;42.130;24.732;2022-07-29T13:13:16;99299.25;;;34.94;27.28
5755;BME280;2902;42.130;24.732;2022-07-29T13:15:45;99297.53;;;34.24;28.19
5755;BME280;2902;42.130;24.732;2022-07-29T13:18:28;99293.88;;;34.67;27.92
5755;BME280;2902;42.130;24.732;2022-07-29T13:20:55;99289.16;;;34.83;27.62
5755;BME280;2902;42.130;24.732;2022-07-29T13:23:22;99295.25;;;34.92;27.49
5755;BME280;2902;42.130;24.732;2022-07-29T13:25:51;99290.38;;;34.85;27.39
5755;BME280;2902;42.130;24.732;2022-07-29T13:28:17;99297.69;;;34.78;27.36
5755;BME280;2902;42.130;24.732;2022-07-29T13:30:44;99286.03;;;34.69;27.72
5755;BME280;2902;42.130;24.732;2022-07-29T13:33:11;99272.38;;;34.76;27.64
5755;BME280;2902;42.130;24.732;2022-07-29T13:35:37;99280.06;;;34.67;28.04
5755;BME280;2902;42.130;24.732;2022-07-29T13:38:04;99272.13;;;34.81;27.38
5755;BME280;2902;42.130;24.732;2022-07-29T13:40:31;99271.97;;;34.74;27.76
5755;BME280;2902;42.130;24.732;2022-07-29T13:43:01;99262.94;;;34.92;27.90
5755;BME280;2902;42.130;24.732;2022-07-29T13:45:28;99261.56;;;35.02;27.52
5755;BME280;2902;42.130;24.732;2022-07-29T13:47:55;99266.56;;;35.15;27.23
5755;BME280;2902;42.130;24.732;2022-07-29T13:50:22;99263.25;;;35.25;27.29
5755;BME280;2902;42.130;24.732;2022-07-29T13:52:48;99253.13;;;35.14;27.54
5755;BME280;2902;42.130;24.732;2022-07-29T13:55:16;99257.91;;;35.17;27.08
5755;BME280;2902;42.130;24.732;2022-07-29T13:57:42;99263.59;;;35.24;27.20
5755;BME280;2902;42.130;24.732;2022-07-29T14:00:12;99257.34;;;35.27;27.06
5755;BME280;2902;42.130;24.732;2022-07-29T14:02:40;99242.59;;;35.38;27.09
5755;BME280;2902;42.130;24.732;2022-07-29T14:05:07;99245.00;;;35.40;26.58
5755;BME280;2902;42.130;24.732;2022-07-29T14:07:35;99244.81;;;35.29;26.83
5755;BME280;2902;42.130;24.732;2022-07-29T14:10:03;99238.59;;;35.36;26.94